Aeroporto :
LOGIN :

Iscrizione | Disclaimer

   EN    FR    IT 

 










Sommario :    VFR   VFR Marginale   IFR   IFR Intensivo   IFR Molto Intensivo
Visibilità : 
Base nubi : 
>= 8 km
>= 3000ft
5 / 8 km
1000 / 3000 ft
1500m / 5 km
500 / 1000 ft
800 / 1500m
200 / 500 ft
< 800m
< 200 ft
Simboli :   Temporali  Nebbia  Neve Forte  Precipitazioni Forti  Vento > 20 kt
SIGMETs :   Varie  Temporali  Ghiacco  Turbolenza  Onda orograficha  Ceneri Vulcaniche






- Altitudine del aeroporto : 191 ft
- Codice IATA : RNB


ESDF - Ronneby

ULTIMO METAR :
  • 200450Z 12005KT 9999 OVC007 12/12 Q1023

METARs OBSOLETI :
  • 200350Z AUTO 12004KT 9999 OVC006/// 12/12 Q1023
  • 200320Z AUTO 12003KT 7000 OVC005/// 12/12 Q1023
  • 200250Z AUTO 12004KT 9000 OVC005/// 12/12 Q1023
  • 200220Z AUTO 13003KT 100V160 7000 SCT002/// OVC004/// 12/12 Q1023

Previsioni scadute.



MetMap, La meteo Aeronautica in un colpo d'occhio ! - Copyright ORBIFLY Dicembre 2007 - Disclaimer

ORBIFLY MET'MAP TEAM :

Programmazione e sviluppo : Alexandra Zaïnal
Concezione : Baudouin d'Aumeries
Aiuto per la programmazione : Marc-Olivier Méhu
Supporto tecnico e logistico : Manuel Goepfert
Aiuto per la traduzione : Arnaldo La Scala

Contatto : metmap@orbifly.com




FONTI E CREDITI :

   NOAA